Data for 07/08/2016

Time Sea-Level Adjusted Pressure Absolute Pressure Temperature Relative Humidity Dew Point   
(mb) (inHg) (mb) (inHg) (C) (F) (%) (C) (F)
00:05 1017 30.03 846 24.98 15.6 60.1 34 -0.1 31.8
00:10 1017 30.03 846 24.98 15.6 60.1 31 -1.3 29.7
00:15 1017 30.03 846 24.98 15.9 60.6 31 -1.2 29.8
00:20 1017 30.03 846 24.98 16 60.7 30 -1.3 29.6
00:25 1017 30.03 846 24.98 15.9 60.6 33 -0.3 31.4
00:30 1017 30.03 846 24.98 15.3 59.5 34 -0.4 31.3
00:35 1017 30.03 846 24.98 14.9 58.9 34 -0.5 31
00:40 1017 30.03 846 24.98 14.7 58.4 37 0.1 32.2
00:45 1017 30.03 846 24.98 14.2 57.6 37 0 32
00:50 1017 30.03 846 24.98 14 57.3 39 0.4 32.7
00:55 1017 30.03 846 24.98 14.1 57.4 35 -0.9 30.4
01:00 1017 30.03 846 24.98 14.7 58.4 34 -1 30.3
01:05 1017 30.03 846 24.98 14.7 58.4 34 -0.9 30.4
01:10 1017 30.03 846 24.98 14.6 58.3 34 -0.9 30.4
01:15 1017 30.03 846 24.98 14.6 58.3 35 -0.6 30.9
01:20 1017 30.03 846 24.98 14.4 57.9 35 -0.6 30.9
01:25 1017 30.03 846 24.98 14.3 57.8 34 -1.1 30.1
01:30 1017 30.03 846 24.98 14.3 57.8 35 -0.8 30.5
01:35 1017 30.03 846 24.98 14.3 57.7 34 -1.4 29.5
01:40 1017 30.03 846 24.98 14.6 58.3 34 -1.1 30.1
01:45 1017 30.03 846 24.98 14.4 58 34 -1.3 29.6
01:50 1017 30.03 846 24.98 14.3 57.7 36 -0.6 30.9
01:55 1017 30.03 846 24.98 13.8 56.9 37 -0.6 31
02:00 1017 30.03 846 24.98 13.6 56.4 37 -0.8 30.5
02:05 1017 30.03 846 24.98 13.5 56.2 38 -0.3 31.4
02:10 1017 30.03 846 24.98 13.3 55.9 38 -0.6 30.9
02:15 1017 30.03 846 24.98 13.2 55.8 39 -0.5 31.1
02:20 1017 30.03 846 24.98 13.2 55.8 37 -0.9 30.4
02:25 1017 30.03 846 24.98 13.4 56.1 37 -1.1 30.1
02:30 1017 30.03 846 24.98 13.6 56.5 38 -0.5 31.1
02:35 1017 30.03 846 24.98 13.5 56.2 37 -0.9 30.4
02:40 1017 30.03 846 24.98 13.4 56.1 38 -0.7 30.7
02:45 1017 30.03 846 24.98 13.4 56.2 35 -1.7 28.9
02:50 1017 30.03 846 24.98 13.9 56.9 34 -1.6 29.1
02:55 1017 30.03 846 24.98 14.1 57.4 34 -1.5 29.3
03:00 1017 30.03 846 24.98 14 57.1 35 -1.1 30.1
03:05 1017 30.03 846 24.98 13.7 56.7 36 -1.2 29.9
03:10 1017 30.03 846 24.98 13.7 56.6 35 -1.3 29.6
03:15 1017 30.03 846 24.98 13.7 56.7 34 -2 28.4
03:20 1017 30.03 846 24.98 14 57.2 34 -1.6 29.1
03:25 1017 30.03 846 24.98 14 57.1 34 -1.5 29.3
03:30 1017 30.03 846 24.98 13.9 57 35 -1.4 29.5
03:35 1017 30.03 846 24.98 13.7 56.7 35 -1.5 29.3
03:40 1017 30.03 846 24.98 13.8 56.8 35 -1.5 29.2
03:45 1017 30.03 846 24.98 13.9 56.9 34 -1.6 29.1
03:50 1017 30.03 846 24.98 13.6 56.5 36 -1.3 29.7
03:55 1017 30.03 846 24.98 13.5 56.3 35 -1.4 29.4
04:00 1017 30.03 846 24.98 13.5 56.4 35 -1.5 29.3
04:05 1017 30.03 846 24.98 13.6 56.5 35 -1.4 29.5
04:10 1017 30.03 846 24.98 13.5 56.4 36 -1.3 29.6
04:15 1017 30.03 846 24.98 13.5 56.2 35 -1.5 29.3
04:20 1017 30.03 846 24.98 13.5 56.2 35 -1.5 29.3
04:25 1017 30.03 846 24.98 13.5 56.4 35 -1.6 29.1
04:30 1017 30.03 846 24.98 13.6 56.5 35 -1.5 29.2
04:35 1017 30.03 846 24.98 13.6 56.5 36 -1.1 30
04:40 1017 30.03 846 24.98 13.4 56.1 37 -0.9 30.4
04:45 1017 30.03 846 24.98 13.1 55.5 38 -0.7 30.7
04:50 1017 30.03 846 24.98 13.1 55.6 37 -1.2 29.9
04:55 1017 30.03 846 24.98 13.2 55.8 37 -0.9 30.4
05:00 1017 30.03 846 24.98 13.3 55.9 36 -1.3 29.7
05:05 1017 30.03 846 24.98 13.5 56.2 36 -1.1 30.1
05:10 1017 30.03 846 24.98 13.3 56 39 -0.2 31.6
05:15 1017 30.03 846 24.98 13.2 55.8 38 -0.7 30.7
05:20 1017 30.03 846 24.98 13.5 56.2 37 -0.9 30.5
05:25 1017 30.03 846 24.98 13.7 56.6 36 -0.9 30.4
05:30 1017 30.03 846 24.98 13.6 56.6 37 -0.7 30.8
05:35 1017 30.03 846 24.98 13.5 56.3 38 -0.4 31.4
05:40 1017 30.03 846 24.98 13.3 55.9 40 0.1 32.1
05:45 1017 30.03 846 24.98 13 55.4 42 0.3 32.5
05:50 1017 30.03 846 24.98 12.8 55 41 -0.2 31.6
05:55 1017 30.03 846 24.98 13.1 55.6 39 -0.5 31.1
06:00 1017 30.03 846 24.98 13.5 56.3 40 0.1 32.1
06:05 1017 30.03 846 24.98 13.7 56.7 40 0.5 32.8
06:10 1017 30.03 846 24.98 14 57.2 38 -0.1 31.9
06:15 1017 30.03 846 24.98 14.3 57.8 36 -0.6 30.9
06:20 1017 30.03 846 24.98 14.6 58.3 36 -0.3 31.5
06:25 1017 30.03 846 24.98 15 59 36 0 32
06:30 1017 30.03 846 24.98 15 59 37 0.5 32.9
06:35 1017 30.03 846 24.98 15.1 59.3 38 0.9 33.6
06:40 1017 30.03 846 24.98 15.4 59.8 38 1.3 34.4
06:45 1017 30.03 846 24.98 15.7 60.2 37 1.1 33.9
06:50 1017 30.03 846 24.98 15.7 60.2 40 2.2 35.9
06:55 1017 30.03 846 24.98 15.9 60.6 37 1.4 34.5
07:00 1017 30.03 846 24.98 16.2 61.1 38 2 35.5
07:05 1017 30.03 846 24.98 16.9 62.3 35 1.6 34.9
07:10 1017 30.03 846 24.98 17.5 63.5 33 1.2 34.2
07:15 1017 30.03 846 24.98 17.6 63.7 32 0.9 33.5
07:20 1017 30.03 846 24.98 18.1 64.5 33 1.6 35
07:25 1017 30.03 846 24.98 18.5 65.3 32 1.8 35.2
07:30 1017 30.03 846 24.98 18.8 65.8 30 0.9 33.6
07:35 1017 30.03 846 24.98 18.9 66.1 30 1 33.8
07:40 1017 30.03 846 24.98 19.1 66.3 30 1.3 34.4
07:45 1017 30.03 846 24.98 19.4 66.9 28 0.8 33.4
07:50 1017 30.03 846 24.98 19.2 66.6 28 0.6 33.1
07:55 1017 30.03 846 24.98 19 66.1 29 0.5 32.9
08:00 1017 30.03 846 24.98 19.3 66.7 29 0.7 33.3
08:05 1017 30.03 846 24.98 20.2 68.3 27 0.9 33.7
08:10 1017 30.03 846 24.98 20.9 69.6 26 0.9 33.6
08:15 1017 30.03 846 24.98 21.4 70.5 26 1.3 34.3
08:20 1017 30.03 846 24.98 22.3 72.1 25 1.7 35
08:25 1017 30.03 846 24.98 22.3 72.2 25 1.6 35
08:30 1017 30.03 846 24.98 22.4 72.2 26 2 35.5
08:35 1017 30.03 846 24.98 21.8 71.3 27 2.3 36.1
08:40 1017 30.03 846 24.98 22 71.6 26 1.7 35
08:45 1017 30.03 846 24.98 21.9 71.5 27 2.3 36.1
08:50 1017 30.03 846 24.98 22.3 72.1 26 2 35.6
08:55 1017 30.03 846 24.98 22.4 72.3 28 2.9 37.3
09:00 1017 30.03 846 24.98 22.5 72.5 26 2.4 36.2
09:05 1016 30 846 24.98 23.6 74.4 24 2.3 36.2
09:10 1016 30 846 24.98 23.4 74 26 2.8 37
09:15 1016 30 846 24.98 22.5 72.4 27 2.7 36.9
09:20 1016 30 846 24.98 22.7 72.8 27 2.8 37.1
09:25 1016 30 846 24.98 23.4 74.2 25 2.7 36.9
09:30 1016 30 845 24.95 23.8 74.8 25 2.9 37.1
09:35 1016 30 845 24.95 24.4 75.9 26 3.6 38.5
09:40 1016 30 845 24.95 24.3 75.7 26 3.6 38.5
09:45 1016 30 845 24.95 24.8 76.6 26 4.1 39.4
09:50 1016 30 845 24.95 25.2 77.4 26 4.7 40.4
09:55 1016 30 845 24.95 25.5 77.9 25 4.1 39.3
10:00 1016 30 845 24.95 25.7 78.3 26 4.8 40.7
10:05 1016 30 845 24.95 25.7 78.3 25 4.5 40
10:10 1016 30 845 24.95 26.3 79.3 22 3.4 38.2
10:15 1016 30 845 24.95 26.5 79.6 24 4.5 40.1
10:20 1016 30 845 24.95 26.1 79 22 2.7 36.9
10:25 1016 30 845 24.95 25.9 78.7 22 2.7 36.9
10:30 1016 30 845 24.95 25.9 78.7 23 3.2 37.8
10:35 1016 30 845 24.95 26.8 80.3 22 3.9 39
10:40 1016 30 845 24.95 27.1 80.8 22 3.7 38.7
10:45 1016 30 845 24.95 27 80.5 22 3.5 38.3
10:50 1016 30 845 24.95 27.1 80.8 21 2.9 37.2
10:55 1016 30 845 24.95 28.3 82.9 19 2.8 37.1
11:00 1016 30 845 24.95 27.9 82.3 19 2.2 36
11:05 1016 30 845 24.95 27.3 81.1 20 2.4 36.4
11:10 1016 30 845 24.95 28.4 83 18 1.9 35.4
11:15 1016 30 845 24.95 29.7 85.4 16 1.5 34.7
11:20 1016 30 845 24.95 30.4 86.7 17 2.9 37.3
11:25 1015 29.97 845 24.95 29.7 85.5 17 2.6 36.7
11:30 1015 29.97 845 24.95 29.2 84.6 16 1.3 34.4
11:35 1015 29.97 845 24.95 29.6 85.3 15 0.6 33.1
11:40 1015 29.97 844 24.92 30 86 14 0.1 32.1
11:45 1015 29.97 844 24.92 29.7 85.5 15 0.5 32.9
11:50 1015 29.97 844 24.92 29.5 85.1 15 0.6 33.1
11:55 1015 29.97 844 24.92 29.2 84.5 14 -0.3 31.4
12:00 1015 29.97 844 24.92 29.1 84.4 15 0.4 32.7
12:05 1015 29.97 844 24.92 29.5 85.1 14 -0.1 31.8
12:10 1015 29.97 844 24.92 29.4 84.9 15 0 32.1
12:15 1015 29.97 844 24.92 30 86.1 14 -0.2 31.6
12:20 1015 29.97 844 24.92 29.9 85.8 14 -0.5 31.2
12:25 1015 29.97 844 24.92 30.9 87.6 13 -0.1 31.9
12:30 1015 29.97 844 24.92 29.9 85.9 17 2.4 36.3
12:35 1015 29.97 844 24.92 30.2 86.4 14 -0 32
12:40 1015 29.97 844 24.92 31.1 87.9 13 -0.6 30.9
12:45 1015 29.97 844 24.92 31.7 89 12 -0.9 30.3
12:50 1014 29.94 844 24.92 31.6 88.8 12 -0.7 30.7
12:55 1014 29.94 844 24.92 32 89.7 12 -0.8 30.6
13:00 1014 29.94 844 24.92 31.6 88.8 13 -0.1 31.7
13:05 1014 29.94 844 24.92 30.6 87.1 13 -0.8 30.5
13:10 1014 29.94 843 24.89 30.6 87 14 0.1 32.2
13:15 1014 29.94 843 24.89 31.1 87.9 13 -0.6 31
13:20 1014 29.94 843 24.89 31.1 87.9 13 -0.4 31.3
13:25 1014 29.94 843 24.89 31.2 88.1 13 -0.6 30.9
13:30 1014 29.94 843 24.89 31 87.8 13 -0.8 30.6
13:35 1014 29.94 843 24.89 31.7 89 12 -0.4 31.3
13:40 1014 29.94 843 24.89 31.8 89.3 12 -0.9 30.4
13:45 1014 29.94 843 24.89 30.8 87.4 13 -0.9 30.4
13:50 1014 29.94 843 24.89 30.8 87.4 13 -0.8 30.6
13:55 1014 29.94 843 24.89 30.3 86.6 13 -0.3 31.4
14:00 1014 29.94 843 24.89 30.3 86.5 13 -1.1 30.1
14:05 1014 29.94 843 24.89 30.5 86.9 13 -0.9 30.4
14:10 1014 29.94 843 24.89 30.7 87.3 13 -0.9 30.4
14:15 1014 29.94 843 24.89 31.1 88 13 -0.4 31.3
14:20 1014 29.94 843 24.89 31.8 89.3 12 -0.3 31.5
14:25 1013 29.91 843 24.89 32.2 90 13 0.6 33.2
14:30 1013 29.91 843 24.89 32.6 90.6 13 0.7 33.3
14:35 1013 29.91 842 24.86 32 89.5 13 0.2 32.4
14:40 1013 29.91 842 24.86 31.3 88.4 13 0.3 32.6
14:45 1013 29.91 842 24.86 30.9 87.6 15 1.4 34.4
14:50 1013 29.91 842 24.86 30.3 86.5 17 2.9 37.3
14:55 1013 29.91 842 24.86 30.6 87 15 1.6 34.9
15:00 1013 29.91 842 24.86 31 87.8 15 2.2 35.9
15:05 1013 29.91 842 24.86 30.8 87.5 14 1 33.8
15:10 1013 29.91 842 24.86 31.3 88.3 14 0.9 33.6
15:15 1013 29.91 842 24.86 31 87.7 15 1.4 34.5
15:20 1013 29.91 842 24.86 30.9 87.7 15 1.7 35
15:25 1013 29.91 842 24.86 30.1 86.3 18 3.6 38.4
15:30 1013 29.91 842 24.86 29.6 85.3 17 2.3 36.2
15:35 1013 29.91 842 24.86 29.4 84.9 18 2.7 36.9
15:40 1013 29.91 842 24.86 29 84.2 19 3 37.4
15:45 1013 29.91 842 24.86 28.4 83 19 3 37.4
15:50 1013 29.91 842 24.86 27.7 81.8 21 3.5 38.3
15:55 1014 29.94 843 24.89 27.2 80.9 22 3.8 38.8
16:00 1014 29.94 843 24.89 26.5 79.7 32 8.9 48
16:05 1014 29.94 843 24.89 24.3 75.7 40 9.9 49.8
16:10 1014 29.94 843 24.89 23 73.4 43 9.8 49.6
16:15 1014 29.94 843 24.89 22.6 72.6 46 10.5 51
16:20 1014 29.94 843 24.89 22.4 72.3 48 11 51.9
16:25 1014 29.94 844 24.92 22 71.5 39 7.7 45.9
16:30 1015 29.97 844 24.92 22.5 72.5 41 9 48.1
16:35 1015 29.97 844 24.92 22.7 72.9 43 9.8 49.6
16:40 1015 29.97 845 24.95 22.5 72.5 43 9.6 49.4
16:45 1016 30 845 24.95 22.7 72.8 37 7.3 45.1
16:50 1016 30 845 24.95 22.5 72.5 46 10.6 51.1
16:55 1016 30 845 24.95 21.1 70 43 8.3 47
17:00 1016 30 845 24.95 21.1 70 43 8.3 47
17:05 1016 30 845 24.95 21.5 70.7 42 8.2 46.8
17:10 1016 30 845 24.95 21.6 70.9 41 7.9 46.1
17:15 1016 30 846 24.98 21.5 70.8 41 7.9 46.2
17:20 1017 30.03 846 24.98 21.5 70.6 42 8.1 46.6
17:25 1017 30.03 846 24.98 21.6 70.8 37 6.4 43.5
17:30 1017 30.03 846 24.98 21.8 71.2 38 7 44.6
17:35 1017 30.03 846 24.98 21.8 71.2 37 6.6 43.9
17:40 1017 30.03 846 24.98 21.6 71 37 6.7 44
17:45 1017 30.03 846 24.98 21.6 70.8 41 7.9 46.2
17:50 1017 30.03 846 24.98 21.1 70.1 41 7.6 45.7
17:55 1017 30.03 846 24.98 20.6 69.1 43 7.8 46.1
18:00 1016 30 846 24.98 20.2 68.3 48 8.9 48
18:05 1016 30 845 24.95 19.9 67.8 48 8.8 47.8
18:10 1015 29.97 844 24.92 19.7 67.5 45 7.6 45.7
18:15 1015 29.97 844 24.92 19.9 67.8 46 8 46.3
18:20 1015 29.97 844 24.92 20 68 46 8.1 46.6
18:25 1015 29.97 844 24.92 19.9 67.8 48 8.8 47.8
18:30 1015 29.97 844 24.92 19.8 67.6 48 8.5 47.2
18:35 1015 29.97 844 24.92 19.8 67.7 45 7.6 45.7
18:40 1015 29.97 844 24.92 20 68.1 43 7.3 45.1
18:45 1015 29.97 844 24.92 20.2 68.3 44 7.5 45.6
18:50 1015 29.97 844 24.92 19.8 67.7 48 8.8 47.8
18:55 1015 29.97 844 24.92 19.5 67.1 46 7.6 45.8
19:00 1015 29.97 844 24.92 19.7 67.5 45 7.5 45.5
19:05 1015 29.97 844 24.92 19.8 67.6 45 7.6 45.7
19:10 1015 29.97 844 24.92 19.8 67.6 44 7.4 45.3
19:15 1015 29.97 844 24.92 19.6 67.3 51 9.2 48.6
19:20 1015 29.97 844 24.92 19.2 66.5 53 9.4 48.9
19:25 1015 29.97 844 24.92 18.8 65.9 54 9.5 49
19:30 1015 29.97 844 24.92 18.8 65.8 55 9.5 49.2
19:35 1015 29.97 844 24.92 18.7 65.7 55 9.6 49.3
19:40 1015 29.97 844 24.92 18.7 65.6 55 9.4 48.9
19:45 1015 29.97 844 24.92 18.8 65.8 51 8.6 47.5
19:50 1016 30 845 24.95 19 66.1 52 9 48.1
19:55 1016 30 845 24.95 19.1 66.3 53 9.4 48.9
20:00 1017 30.03 846 24.98 19.1 66.4 54 9.8 49.6
20:05 1017 30.03 846 24.98 19 66.2 57 10.3 50.5
20:10 1016 30 845 24.95 18.3 64.9 66 11.9 53.4
20:15 1016 30 845 24.95 17.2 63 69 11.6 52.9
20:20 1016 30 845 24.95 16.9 62.3 68 10.9 51.6
20:25 1016 30 845 24.95 16.7 62.1 69 11.1 51.9
20:30 1016 30 845 24.95 16.7 62 66 10.4 50.7
20:35 1016 30 845 24.95 16.9 62.5 71 11.6 52.9
20:40 1016 30 845 24.95 16.9 62.5 69 11.2 52.2
20:45 1016 30 845 24.95 17.1 62.7 62 9.9 49.8
20:50 1016 30 845 24.95 17.1 62.7 61 9.7 49.5
20:55 1016 30 845 24.95 17 62.7 60 9.2 48.5
21:00 1016 30 845 24.95 17.2 63 57 8.7 47.7
21:05 1016 30 845 24.95 17.5 63.5 53 8 46.5
21:10 1016 30 845 24.95 17.6 63.7 55 8.7 47.6
21:15 1016 30 845 24.95 17.5 63.4 55 8.5 47.4
21:20 1016 30 846 24.98 17.7 63.9 53 8.1 46.6
21:25 1017 30.03 846 24.98 17.8 64.1 55 8.7 47.7
21:30 1016 30 845 24.95 17.6 63.6 55 8.5 47.2
21:35 1016 30 845 24.95 17.1 62.7 58 8.8 47.8
21:40 1016 30 845 24.95 16.6 61.8 55 7.5 45.5
21:45 1016 30 846 24.98 17.4 63.3 60 9.6 49.2
21:50 1016 30 846 24.98 16.4 61.6 57 8.1 46.5
21:55 1016 30 846 24.98 16.9 62.4 51 6.8 44.3
22:00 1017 30.03 846 24.98 17.6 63.7 52 7.8 46
22:05 1016 30 846 24.98 17.4 63.2 53 7.9 46.2
22:10 1016 30 846 24.98 17.2 62.9 52 7.3 45.1
22:15 1016 30 846 24.98 17.4 63.3 53 7.8 46.1
22:20 1016 30 846 24.98 17.1 62.7 54 7.7 45.9
22:25 1016 30 846 24.98 17.1 62.8 52 7.4 45.3
22:30 1016 30 846 24.98 17.3 63.1 51 7.1 44.7
22:35 1016 30 845 24.95 17.5 63.4 52 7.5 45.5
22:40 1016 30 845 24.95 17.4 63.3 51 7.4 45.3
22:45 1016 30 846 24.98 17.2 62.9 54 7.8 46
22:50 1017 30.03 846 24.98 17 62.7 56 8.4 47.1
22:55 1016 30 846 24.98 16.8 62.2 58 8.5 47.2
23:00 1016 30 845 24.95 16.5 61.6 58 8.3 47
23:05 1016 30 845 24.95 16.2 61.1 62 9 48.2
23:10 1016 30 846 24.98 16 60.8 60 8.3 47
23:15 1016 30 846 24.98 15.9 60.7 61 8.6 47.4
23:20 1016 30 846 24.98 15.9 60.7 61 8.6 47.5
23:25 1016 30 846 24.98 15.6 60 64 8.8 47.8
23:30 1017 30.03 846 24.98 15.5 59.9 63 8.6 47.5
23:35 1017 30.03 846 24.98 15.5 59.8 66 9.3 48.7
23:40 1017 30.03 846 24.98 15 59 65 8.6 47.5
23:45 1017 30.03 846 24.98 15.2 59.3 64 8.6 47.4
23:50 1017 30.03 846 24.98 15.6 60 60 7.9 46.2
23:55 1017 30.03 846 24.98 15.7 60.3 66 9.4 49
24:00 1017 30.03 846 24.98 15.1 59.2 69 9.4 49